Time;durP1;ratioP1;P1;durP2;ratioP2;P2;SDS_P1;SDS_P2;PMS_P1;PMS_P2;Temp;Humidity;BMP_temperature;BMP_pressure;BME280_temperature;BME280_humidity;BME280_pressure;Samples;Min_cycle;Max_cycle;Signal;HPM_P1;HPM_P2
2023/10/28 00:00:54;;;;;;;;;;;10.60;99.90;;;;;;5061110;28;21212;-71
2023/10/28 00:03:20;;;;;;;16.48;8.75;;;10.70;99.90;;;;;;5064962;28;19998;-71
2023/10/28 00:05:46;;;;;;;22.98;9.77;;;10.70;99.90;;;;;;5063282;28;20049;-71
2023/10/28 00:08:12;;;;;;;22.02;10.77;;;10.70;99.90;;;;;;5060281;28;20040;-71
2023/10/28 00:10:39;;;;;;;22.45;10.98;;;10.70;99.90;;;;;;5061947;28;20565;-71
2023/10/28 00:13:07;;;;;;;20.35;11.05;;;10.70;99.90;;;;;;5063261;28;20142;-71
2023/10/28 00:15:32;;;;;;;23.25;11.63;;;10.70;99.90;;;;;;5064647;28;20686;-71
2023/10/28 00:17:58;;;;;;;23.57;11.67;;;10.70;99.90;;;;;;5054539;28;20145;-71
2023/10/28 00:20:23;;;;;;;23.37;11.90;;;10.70;99.90;;;;;;5056959;28;20255;-71
2023/10/28 00:22:53;;;;;;;27.10;12.30;;;10.70;99.90;;;;;;5056774;28;20063;-71
2023/10/28 00:25:22;;;;;;;21.83;11.43;;;10.60;99.90;;;;;;5065297;28;20473;-71
2023/10/28 00:27:48;;;;;;;23.38;11.63;;;10.60;99.90;;;;;;5064797;28;20224;-71
2023/10/28 00:30:14;;;;;;;25.80;12.70;;;10.60;99.90;;;;;;5054945;28;20051;-71
2023/10/28 00:32:40;;;;;;;21.95;11.32;;;10.60;99.90;;;;;;5054055;28;20368;-71
2023/10/28 00:35:07;;;;;;;25.38;11.60;;;10.60;99.90;;;;;;5063735;28;20497;-71
2023/10/28 00:37:36;;;;;;;22.27;11.88;;;10.60;99.90;;;;;;5063240;28;20128;-71
2023/10/28 00:40:05;;;;;;;24.95;11.77;;;10.60;99.90;;;;;;5053555;28;20029;-71
2023/10/28 00:42:41;;;;;;;27.83;12.52;;;10.60;99.90;;;;;;5053275;28;20072;-71
2023/10/28 00:45:10;;;;;;;25.63;12.93;;;10.60;99.90;;;;;;5055173;28;20032;-71
2023/10/28 00:47:38;;;;;;;30.13;12.80;;;10.60;99.90;;;;;;5053076;28;20463;-71
2023/10/28 00:50:12;;;;;;;27.00;13.07;;;10.50;99.90;;;;;;5064638;28;20040;-71
2023/10/28 00:52:44;;;;;;;24.73;12.55;;;10.50;99.90;;;;;;5055743;28;20091;-71
2023/10/28 00:55:11;;;;;;;24.00;12.48;;;10.50;99.90;;;;;;5056033;28;20040;-71
2023/10/28 00:57:44;;;;;;;29.00;13.63;;;10.50;99.90;;;;;;5054478;28;20473;-71
2023/10/28 01:00:11;;;;;;;27.92;12.52;;;10.50;99.90;;;;;;5060354;28;20106;-71
2023/10/28 01:02:39;;;;;;;27.17;12.35;;;10.50;99.90;;;;;;5063309;28;20058;-71
2023/10/28 01:05:09;;;;;;;28.00;13.70;;;10.40;99.90;;;;;;5057892;28;20051;-71
2023/10/28 01:07:36;;;;;;;32.33;13.40;;;10.50;99.90;;;;;;5061650;28;20033;-71
2023/10/28 01:10:03;;;;;;;28.17;13.27;;;10.40;99.90;;;;;;5045531;28;20508;-71
2023/10/28 01:12:29;;;;;;;26.35;12.10;;;10.40;99.90;;;;;;5062050;28;20493;-71
2023/10/28 01:14:56;;;;;;;26.02;13.80;;;10.40;99.90;;;;;;5060184;28;20053;-71
2023/10/28 01:17:25;;;;;;;25.85;12.35;;;10.40;99.90;;;;;;5063675;28;20044;-72
2023/10/28 01:19:52;;;;;;;26.20;12.98;;;10.40;99.90;;;;;;5058049;28;20048;-71
2023/10/28 01:22:18;;;;;;;27.77;13.25;;;10.40;99.90;;;;;;5051796;28;20123;-71
2023/10/28 01:24:44;;;;;;;;;;;10.30;99.90;;;;;;5055383;28;20041;-71
2023/10/28 01:27:09;;;;;;;28.17;12.35;;;10.40;99.90;;;;;;5062082;28;19916;-71
2023/10/28 01:29:36;;;;;;;25.63;12.47;;;10.30;99.90;;;;;;5054672;28;20485;-71
2023/10/28 01:32:03;;;;;;;27.83;13.30;;;10.30;99.90;;;;;;5059815;28;20044;-71
2023/10/28 01:34:30;;;;;;;31.33;12.70;;;10.30;99.90;;;;;;5058438;28;20045;-71
2023/10/28 01:36:56;;;;;;;;;;;10.30;99.90;;;;;;5063414;28;20055;-71
2023/10/28 01:39:21;;;;;;;25.33;12.45;;;10.20;99.90;;;;;;5055026;28;20004;-71
2023/10/28 01:41:47;;;;;;;30.93;13.43;;;10.20;99.90;;;;;;5064751;28;20120;-71
2023/10/28 01:44:14;;;;;;;26.93;13.57;;;10.20;99.90;;;;;;5056779;28;20033;-71
2023/10/28 01:46:40;;;;;;;28.02;13.90;;;10.20;99.90;;;;;;5061212;28;20048;-71
2023/10/28 01:49:06;;;;;;;;;;;10.20;99.90;;;;;;5065728;28;20119;-71
2023/10/28 01:51:32;;;;;;;27.25;13.10;;;10.10;99.90;;;;;;5059930;28;19998;-71
2023/10/28 01:53:57;;;;;;;29.83;13.57;;;10.10;99.90;;;;;;5061281;28;20095;-71
2023/10/28 01:56:23;;;;;;;27.07;12.73;;;10.10;99.90;;;;;;5055636;28;20607;-71
2023/10/28 01:58:48;;;;;;;32.10;12.33;;;10.10;99.90;;;;;;5053048;28;20078;-71
2023/10/28 02:01:14;;;;;;;27.80;12.80;;;10.10;99.90;;;;;;5059160;28;20226;-71
2023/10/28 02:03:40;;;;;;;28.50;12.90;;;10.10;99.90;;;;;;5055828;28;20039;-71
2023/10/28 02:06:06;;;;;;;26.80;13.20;;;10.00;99.90;;;;;;5053158;28;20552;-71
2023/10/28 02:08:32;;;;;;;26.00;11.95;;;10.00;99.90;;;;;;5060826;28;20503;-71
2023/10/28 02:10:58;;;;;;;24.42;12.88;;;10.00;99.90;;;;;;5066298;28;20036;-71
2023/10/28 02:13:23;;;;;;;25.17;11.93;;;10.00;99.90;;;;;;5054500;28;20033;-71
2023/10/28 02:15:49;;;;;;;24.47;12.87;;;10.00;99.90;;;;;;5061445;28;20094;-71
2023/10/28 02:18:18;;;;;;;26.08;12.25;;;9.90;99.90;;;;;;5057255;28;20282;-71
2023/10/28 02:20:47;;;;;;;26.17;12.10;;;9.90;99.90;;;;;;5059797;28;20047;-71
2023/10/28 02:23:15;;;;;;;24.55;11.70;;;9.90;99.90;;;;;;5058778;28;20040;-71
2023/10/28 02:25:41;;;;;;;22.23;11.38;;;9.90;99.90;;;;;;5058729;28;20527;-71
2023/10/28 02:28:08;;;;;;;24.33;11.85;;;10.00;99.90;;;;;;5058829;28;20443;-71
2023/10/28 02:30:36;;;;;;;;;;;9.90;99.90;;;;;;5054375;28;20077;-71
2023/10/28 02:33:02;;;;;;;25.67;12.05;;;9.90;99.90;;;;;;5055297;28;19920;-71
2023/10/28 02:35:27;;;;;;;23.07;11.53;;;9.90;99.90;;;;;;5056141;28;20041;-71
2023/10/28 02:37:53;;;;;;;25.10;11.10;;;9.90;99.90;;;;;;5059567;28;20505;-71
2023/10/28 02:40:18;;;;;;;23.23;10.73;;;9.90;99.90;;;;;;5055205;28;20109;-71
2023/10/28 02:42:44;;;;;;;21.17;10.73;;;9.90;99.90;;;;;;5058693;28;20129;-71
2023/10/28 02:45:10;;;;;;;22.73;10.53;;;9.80;99.90;;;;;;5057914;28;20037;-71
2023/10/28 02:47:35;;;;;;;19.97;10.23;;;9.80;99.90;;;;;;5056888;28;20332;-71
2023/10/28 02:50:01;;;;;;;23.63;11.13;;;9.80;99.90;;;;;;5063726;28;20182;-71
2023/10/28 02:52:27;;;;;;;23.13;9.83;;;9.80;99.90;;;;;;5056531;28;20044;-71
2023/10/28 02:54:53;;;;;;;22.52;10.48;;;9.80;99.90;;;;;;5059187;28;20045;-71
2023/10/28 02:57:19;;;;;;;19.23;10.10;;;9.80;99.90;;;;;;5060484;28;20047;-71
2023/10/28 02:59:44;;;;;;;20.02;9.82;;;9.80;99.90;;;;;;5059916;28;20051;-71
2023/10/28 03:02:10;;;;;;;19.47;9.47;;;9.70;99.90;;;;;;5059535;28;20484;-71
2023/10/28 03:04:36;;;;;;;17.77;8.65;;;9.70;99.90;;;;;;5061294;28;20050;-71
2023/10/28 03:07:01;;;;;;;19.93;9.00;;;9.70;99.90;;;;;;5058272;28;20454;-71
2023/10/28 03:09:27;;;;;;;20.80;9.17;;;9.60;99.90;;;;;;5058351;28;20269;-71
2023/10/28 03:11:53;;;;;;;23.43;9.50;;;9.60;99.90;;;;;;5057011;28;20110;-71
2023/10/28 03:14:19;;;;;;;20.65;9.05;;;9.60;99.90;;;;;;5058149;28;20528;-71
2023/10/28 03:16:46;;;;;;;17.77;9.07;;;9.60;99.90;;;;;;5059770;28;20486;-71
2023/10/28 03:19:11;;;;;;;21.52;8.88;;;9.60;99.90;;;;;;5056890;28;20104;-71
2023/10/28 03:21:38;;;;;;;15.02;8.02;;;9.50;99.90;;;;;;5059916;28;20716;-72
2023/10/28 03:24:03;;;;;;;16.73;7.88;;;9.50;99.90;;;;;;5054943;28;20365;-71
2023/10/28 03:26:30;;;;;;;17.02;8.05;;;9.50;99.90;;;;;;5061171;28;20620;-70
2023/10/28 03:28:56;;;;;;;17.05;7.68;;;9.50;99.90;;;;;;5045907;28;20076;-70
2023/10/28 03:31:22;;;;;;;15.80;7.77;;;9.40;99.90;;;;;;5053659;28;20036;-71
2023/10/28 03:33:47;;;;;;;19.67;8.70;;;9.50;99.90;;;;;;5060664;28;20037;-70
2023/10/28 03:36:13;;;;;;;23.27;9.07;;;9.40;99.90;;;;;;5054759;28;20037;-71
2023/10/28 03:38:39;;;;;;;16.87;8.70;;;9.40;99.90;;;;;;5058035;28;20089;-70
2023/10/28 03:41:06;;;;;;;18.10;8.20;;;9.40;99.90;;;;;;5059490;28;20041;-70
2023/10/28 03:43:32;;;;;;;17.27;7.82;;;9.30;99.90;;;;;;5054588;28;20856;-71
2023/10/28 03:45:57;;;;;;;14.83;7.70;;;9.30;99.90;;;;;;5055158;28;20119;-70
2023/10/28 03:48:23;;;;;;;16.60;7.77;;;9.30;99.90;;;;;;5059238;28;20045;-71
2023/10/28 03:50:57;;;;;;;16.90;8.13;;;9.30;99.90;;;;;;5056891;28;20481;-70
2023/10/28 03:53:23;;;;;;;13.45;7.40;;;9.20;99.90;;;;;;5056536;28;20044;-70
2023/10/28 03:55:48;;;;;;;21.30;7.37;;;9.20;99.90;;;;;;5058013;28;20049;-70
2023/10/28 03:58:14;;;;;;;17.30;6.77;;;9.20;99.90;;;;;;5052502;28;20105;-71
2023/10/28 04:00:40;;;;;;;14.30;7.33;;;9.20;99.90;;;;;;5053860;28;20037;-70
2023/10/28 04:03:05;;;;;;;18.38;7.78;;;9.20;99.90;;;;;;5057762;28;20091;-70
2023/10/28 04:05:31;;;;;;;16.50;7.50;;;9.20;99.90;;;;;;5052524;28;20080;-71
2023/10/28 04:07:57;;;;;;;14.52;7.63;;;9.10;99.90;;;;;;5044784;28;20493;-71
2023/10/28 04:10:23;;;;;;;13.60;7.70;;;9.10;99.90;;;;;;5056024;28;20040;-70
2023/10/28 04:12:49;;;;;;;14.75;6.75;;;9.10;99.90;;;;;;5052752;28;20780;-71
2023/10/28 04:15:16;;;;;;;20.13;7.07;;;9.10;99.90;;;;;;5044167;28;20063;-70
2023/10/28 04:17:42;;;;;;;14.90;7.10;;;9.10;99.90;;;;;;5052682;28;20044;-71
2023/10/28 04:20:10;;;;;;;14.75;6.97;;;9.10;99.90;;;;;;5057904;28;20029;-70
2023/10/28 04:22:36;;;;;;;14.60;7.07;;;9.10;99.90;;;;;;5050435;28;20135;-71
2023/10/28 04:25:02;;;;;;;17.40;7.43;;;9.10;99.90;;;;;;5049378;28;20398;-70
2023/10/28 04:27:28;;;;;;;19.40;8.02;;;9.00;99.90;;;;;;5045379;28;20497;-71
2023/10/28 04:29:53;;;;;;;17.43;6.93;;;9.00;99.90;;;;;;5057885;28;20178;-71
2023/10/28 04:32:22;;;;;;;12.88;7.03;;;9.00;99.90;;;;;;5058855;28;20049;-70
2023/10/28 04:34:51;;;;;;;12.93;6.97;;;9.00;99.90;;;;;;5052886;28;20107;-70
2023/10/28 04:37:17;;;;;;;14.98;7.03;;;9.00;99.90;;;;;;5049562;28;20041;-70
2023/10/28 04:39:42;;;;;;;13.32;7.50;;;9.00;99.90;;;;;;5056199;28;20033;-71
2023/10/28 04:42:08;;;;;;;15.07;7.03;;;9.00;99.90;;;;;;5048962;28;20037;-70
2023/10/28 04:44:34;;;;;;;21.37;8.43;;;9.00;99.90;;;;;;5052707;28;20372;-70
2023/10/28 04:47:01;;;;;;;14.88;6.90;;;9.00;99.90;;;;;;5042428;28;20065;-70
2023/10/28 04:49:28;;;;;;;15.10;7.18;;;9.10;99.90;;;;;;5055884;28;20454;-70
2023/10/28 04:51:54;;;;;;;15.50;7.57;;;9.10;99.90;;;;;;5055049;28;22175;-70
2023/10/28 04:54:20;;;;;;;16.30;7.67;;;9.10;99.90;;;;;;5055854;28;20313;-70
2023/10/28 04:56:46;;;;;;;16.60;8.15;;;9.10;99.90;;;;;;5062516;28;20167;-70
2023/10/28 04:59:12;;;;;;;19.17;8.73;;;9.00;99.90;;;;;;5058104;28;20554;-70
2023/10/28 05:01:38;;;;;;;;;;;9.10;99.90;;;;;;5057213;28;20041;-70
2023/10/28 05:04:04;;;;;;;18.15;7.88;;;9.10;99.90;;;;;;5051277;28;19917;-71
2023/10/28 05:06:30;;;;;;;18.02;7.28;;;9.10;99.90;;;;;;5047639;28;20040;-70
2023/10/28 05:08:55;;;;;;;19.45;8.13;;;9.10;99.90;;;;;;5055895;28;20048;-71
2023/10/28 05:11:21;;;;;;;15.40;8.43;;;9.10;99.90;;;;;;5058415;28;20120;-71
2023/10/28 05:13:47;;;;;;;13.73;7.70;;;9.00;99.90;;;;;;5057270;28;20037;-70
2023/10/28 05:16:13;;;;;;;19.07;8.10;;;9.10;99.90;;;;;;5049485;28;20047;-70
2023/10/28 05:18:38;;;;;;;22.17;8.25;;;9.10;99.90;;;;;;5052664;28;20051;-70
2023/10/28 05:21:05;;;;;;;18.43;8.63;;;9.00;99.90;;;;;;5060613;28;20068;-70
2023/10/28 05:23:31;;;;;;;16.73;7.63;;;9.10;99.90;;;;;;5051250;28;20052;-70
2023/10/28 05:25:57;;;;;;;19.70;8.18;;;9.10;99.90;;;;;;5052992;28;20041;-71
2023/10/28 05:28:23;;;;;;;14.33;7.73;;;9.10;99.90;;;;;;5061014;28;20072;-70
2023/10/28 05:30:48;;;;;;;18.23;7.73;;;9.10;99.90;;;;;;5050389;28;20048;-70
2023/10/28 05:33:14;;;;;;;13.77;7.83;;;9.10;99.90;;;;;;5055509;28;20052;-71
2023/10/28 05:35:39;;;;;;;21.07;8.80;;;9.20;99.90;;;;;;5037976;28;20098;-70
2023/10/28 05:38:05;;;;;;;20.97;9.10;;;9.20;99.90;;;;;;5050038;28;20033;-71
2023/10/28 05:40:31;;;;;;;17.33;8.33;;;9.20;99.90;;;;;;5056350;28;20144;-70
2023/10/28 05:42:56;;;;;;;17.80;8.00;;;9.20;99.90;;;;;;5047819;28;20187;-70
2023/10/28 05:45:22;;;;;;;14.03;7.33;;;9.20;99.90;;;;;;5060114;28;20388;-70
2023/10/28 05:47:48;;;;;;;19.33;7.93;;;9.30;99.90;;;;;;5056407;28;20459;-70
2023/10/28 05:50:13;;;;;;;22.30;9.80;;;9.30;99.90;;;;;;5057360;28;20041;-71
2023/10/28 05:52:39;;;;;;;14.75;8.50;;;9.30;99.90;;;;;;5056442;28;20400;-70
2023/10/28 05:55:06;;;;;;;13.90;8.27;;;9.40;99.90;;;;;;5054252;28;20068;-70
2023/10/28 05:57:31;;;;;;;19.05;8.07;;;9.40;99.90;;;;;;5049267;28;20366;-70
2023/10/28 05:59:57;;;;;;;20.27;9.53;;;9.40;99.90;;;;;;5052818;28;20711;-70
2023/10/28 06:02:24;;;;;;;19.70;8.03;;;9.40;99.90;;;;;;5059710;28;20470;-71
2023/10/28 06:04:50;;;;;;;18.27;9.15;;;9.50;99.90;;;;;;5051769;28;20055;-70
2023/10/28 06:07:16;;;;;;;17.63;8.40;;;9.50;99.90;;;;;;5056152;28;20072;-70
2023/10/28 06:09:43;;;;;;;16.63;8.07;;;9.50;99.90;;;;;;5053657;28;20048;-71
2023/10/28 06:12:08;;;;;;;18.42;8.95;;;9.60;99.90;;;;;;5049596;28;20037;-70
2023/10/28 06:14:34;;;;;;;27.63;10.37;;;9.60;99.90;;;;;;5061652;28;20483;-70
2023/10/28 06:16:59;;;;;;;19.93;9.27;;;9.60;99.90;;;;;;5057303;28;20258;-71
2023/10/28 06:19:25;;;;;;;18.33;8.30;;;9.60;99.90;;;;;;5052600;28;20029;-70
2023/10/28 06:21:51;;;;;;;16.52;8.45;;;9.70;99.90;;;;;;5056994;28;20041;-70
2023/10/28 06:24:20;;;;;;;20.42;9.25;;;9.70;99.90;;;;;;5053929;28;20186;-70
2023/10/28 06:26:46;;;;;;;23.83;8.15;;;9.70;99.90;;;;;;5064014;28;20111;-70
2023/10/28 06:29:12;;;;;;;19.27;9.00;;;9.70;99.90;;;;;;5061709;28;20032;-70
2023/10/28 06:31:38;;;;;;;20.13;9.43;;;9.80;99.90;;;;;;5060048;28;20178;-70
2023/10/28 06:34:05;;;;;;;;;;;9.80;99.90;;;;;;5062674;28;20048;-70
2023/10/28 06:36:32;;;;;;;18.73;7.67;;;9.80;99.90;;;;;;5054429;28;20304;-70
2023/10/28 06:38:58;;;;;;;24.20;8.27;;;9.80;99.90;;;;;;5057195;28;20120;-70
2023/10/28 06:41:25;;;;;;;18.57;8.03;;;9.80;99.90;;;;;;5056216;28;20524;-71
2023/10/28 06:43:52;;;;;;;18.15;7.55;;;9.80;99.90;;;;;;5051206;28;20052;-70
2023/10/28 06:46:18;;;;;;;14.23;6.88;;;9.90;99.90;;;;;;5053624;28;20068;-70
2023/10/28 06:48:44;;;;;;;12.65;6.70;;;9.90;99.90;;;;;;5059489;28;20417;-70
2023/10/28 06:51:12;;;;;;;15.27;7.63;;;10.00;99.90;;;;;;5058510;28;20044;-71
2023/10/28 06:53:40;;;;;;;13.30;7.03;;;9.90;99.90;;;;;;5048572;28;20051;-71
2023/10/28 06:56:07;;;;;;;17.83;6.60;;;10.00;99.90;;;;;;5051480;28;20047;-71
2023/10/28 06:58:32;;;;;;;15.18;6.50;;;10.00;99.90;;;;;;5056984;28;20044;-71
2023/10/28 07:00:58;;;;;;;13.70;6.10;;;10.10;99.90;;;;;;5057018;28;20032;-71
2023/10/28 07:03:24;;;;;;;15.30;6.83;;;10.10;99.90;;;;;;5058647;28;20562;-70
2023/10/28 07:05:49;;;;;;;15.33;5.90;;;10.10;99.90;;;;;;5051299;28;20048;-71
2023/10/28 07:08:15;;;;;;;17.47;5.63;;;10.10;99.90;;;;;;5049626;28;20493;-71
2023/10/28 07:10:41;;;;;;;12.50;6.33;;;10.10;99.90;;;;;;5047776;28;20127;-70
2023/10/28 07:13:06;;;;;;;12.57;5.87;;;10.10;99.90;;;;;;5054156;28;20847;-71
2023/10/28 07:15:32;;;;;;;14.03;6.40;;;10.10;99.90;;;;;;5059244;28;20720;-71
2023/10/28 07:17:59;;;;;;;15.38;5.85;;;10.20;99.90;;;;;;5062024;28;20123;-70
2023/10/28 07:20:25;;;;;;;14.07;5.83;;;10.20;99.90;;;;;;5050098;28;20545;-70
2023/10/28 07:22:51;;;;;;;9.90;5.67;;;10.20;99.90;;;;;;5052255;28;20036;-70
2023/10/28 07:25:17;;;;;;;9.13;5.30;;;10.20;99.90;;;;;;5037528;28;20389;-71
2023/10/28 07:27:42;;;;;;;10.07;5.50;;;10.20;99.90;;;;;;5063071;28;20059;-71
2023/10/28 07:30:10;;;;;;;14.03;5.23;;;10.30;99.90;;;;;;5048957;28;20493;-71
2023/10/28 07:32:36;;;;;;;13.32;5.60;;;10.30;99.90;;;;;;5050158;28;20041;-70
2023/10/28 07:35:02;;;;;;;8.50;4.93;;;10.30;99.90;;;;;;5052577;28;20164;-70
2023/10/28 07:37:27;;;;;;;13.75;5.00;;;10.40;99.90;;;;;;5048897;28;20040;-70
2023/10/28 07:39:53;;;;;;;10.53;5.57;;;10.40;99.90;;;;;;5054022;28;20457;-70
2023/10/28 07:42:20;;;;;;;12.77;5.27;;;10.50;99.90;;;;;;5039700;28;20029;-71
2023/10/28 07:44:46;;;;;;;10.85;5.15;;;10.50;99.90;;;;;;5052262;28;20049;-71
2023/10/28 07:47:12;;;;;;;10.47;4.73;;;10.50;99.90;;;;;;5051758;28;20066;-71
2023/10/28 07:49:37;;;;;;;11.83;4.73;;;10.50;99.90;;;;;;5047996;28;20033;-71
2023/10/28 07:52:03;;;;;;;7.90;5.10;;;10.50;99.90;;;;;;5060427;28;20115;-70
2023/10/28 07:54:29;;;;;;;9.27;4.78;;;10.50;99.90;;;;;;5055209;28;20376;-70
2023/10/28 07:56:54;;;;;;;11.47;4.53;;;10.50;99.90;;;;;;5063066;28;20055;-70
2023/10/28 07:59:21;;;;;;;9.63;4.87;;;10.60;99.90;;;;;;5058438;28;20044;-71
2023/10/28 08:01:47;;;;;;;12.65;4.68;;;10.60;99.90;;;;;;5049246;28;20477;-71
2023/10/28 08:04:14;;;;;;;14.48;5.07;;;10.60;99.90;;;;;;5053355;28;20076;-70
2023/10/28 08:06:42;;;;;;;8.63;4.57;;;10.60;99.90;;;;;;5033712;28;20120;-71
2023/10/28 08:09:08;;;;;;;17.15;5.38;;;10.60;99.90;;;;;;5049830;28;20676;-71
2023/10/28 08:11:34;;;;;;;11.90;4.22;;;10.60;99.90;;;;;;5047555;28;20413;-71
2023/10/28 08:14:03;;;;;;;13.50;4.45;;;10.60;99.90;;;;;;5051761;28;20036;-70
2023/10/28 08:16:29;;;;;;;9.50;5.07;;;10.60;99.90;;;;;;5050673;28;20132;-71
2023/10/28 08:18:55;;;;;;;;;;;10.60;99.90;;;;;;5050782;28;20226;-70
2023/10/28 08:21:21;;;;;;;9.43;4.20;;;10.60;99.90;;;;;;5060921;28;20389;-71
2023/10/28 08:23:47;;;;;;;7.10;4.20;;;10.70;99.90;;;;;;5055997;28;20036;-71
2023/10/28 08:26:17;;;;;;;7.10;3.75;;;10.70;99.90;;;;;;5060203;28;20135;-70
2023/10/28 08:28:44;;;;;;;6.60;3.50;;;10.60;99.90;;;;;;5055344;28;20508;-71
2023/10/28 08:31:10;;;;;;;8.50;4.00;;;10.70;99.90;;;;;;5057361;28;20051;-71
2023/10/28 08:33:36;;;;;;;6.93;3.63;;;10.70;99.90;;;;;;5053259;28;20124;-71
2023/10/28 08:36:03;;;;;;;8.00;3.85;;;10.80;99.90;;;;;;5056290;28;20116;-71
2023/10/28 08:38:29;;;;;;;10.15;4.78;;;10.80;99.90;;;;;;5062662;28;20068;-71
2023/10/28 08:40:58;;;;;;;10.98;4.63;;;10.80;99.90;;;;;;5062493;28;20037;-71
2023/10/28 08:43:25;;;;;;;9.90;3.70;;;10.80;99.90;;;;;;5058278;28;20395;-71
2023/10/28 08:45:53;;;;;;;7.63;3.83;;;10.70;99.90;;;;;;5057450;28;20073;-71
2023/10/28 08:48:21;;;;;;;6.28;3.67;;;10.80;99.90;;;;;;5063152;28;20071;-70
2023/10/28 08:50:51;;;;;;;6.45;3.40;;;10.80;99.90;;;;;;5057305;28;20528;-71
2023/10/28 08:53:18;;;;;;;9.20;3.78;;;10.80;99.90;;;;;;5057403;28;20068;-71
2023/10/28 08:55:48;;;;;;;7.53;3.42;;;10.80;99.90;;;;;;5053026;28;20044;-71
2023/10/28 08:58:16;;;;;;;8.88;3.85;;;10.80;99.90;;;;;;5057798;28;20101;-71
2023/10/28 09:00:43;;;;;;;8.75;4.35;;;10.90;99.90;;;;;;5052861;28;20086;-71
2023/10/28 09:03:10;;;;;;;5.88;3.70;;;10.80;99.90;;;;;;5054819;28;20043;-71
2023/10/28 09:05:38;;;;;;;9.55;3.47;;;10.90;99.90;;;;;;5054819;28;20076;-71
2023/10/28 09:08:04;;;;;;;8.18;3.75;;;10.80;99.90;;;;;;5054326;28;20045;-71
2023/10/28 09:10:30;;;;;;;5.85;3.45;;;10.90;99.90;;;;;;5066533;28;20067;-71
2023/10/28 09:12:55;;;;;;;9.75;3.40;;;10.90;99.90;;;;;;5052363;28;20064;-71
2023/10/28 09:15:21;;;;;;;6.17;3.03;;;11.00;99.90;;;;;;5062593;28;20049;-71
2023/10/28 09:17:47;;;;;;;7.03;3.67;;;11.00;99.90;;;;;;5058873;28;20041;-71
2023/10/28 09:20:13;;;;;;;6.20;3.10;;;11.00;99.90;;;;;;5061500;28;20039;-71
2023/10/28 09:22:42;;;;;;;4.97;3.03;;;11.00;99.90;;;;;;5057697;28;20528;-71
2023/10/28 09:25:11;;;;;;;5.32;3.30;;;11.00;99.90;;;;;;5054719;28;20068;-71
2023/10/28 09:27:40;;;;;;;7.07;3.25;;;11.00;99.90;;;;;;5059355;28;20052;-71
2023/10/28 09:30:07;;;;;;;7.00;3.38;;;11.10;99.90;;;;;;5060967;28;20452;-71
2023/10/28 09:32:34;;;;;;;5.72;3.40;;;11.10;99.90;;;;;;5061202;28;20083;-71
2023/10/28 09:35:06;;;;;;;;;;;11.10;99.90;;;;;;5056253;28;20048;-71
2023/10/28 09:37:36;;;;;;;6.53;3.55;;;11.20;99.90;;;;;;5059802;28;20166;-71
2023/10/28 09:40:06;;;;;;;9.95;3.50;;;11.20;99.90;;;;;;5061193;28;20056;-71
2023/10/28 09:42:34;;;;;;;9.05;3.50;;;11.20;99.90;;;;;;5057748;28;20503;-71
2023/10/28 09:45:01;;;;;;;5.18;3.00;;;11.30;99.90;;;;;;5058977;28;20111;-71
2023/10/28 09:47:55;;;;;;;9.80;3.25;;;11.30;99.90;;;;;;5052449;28;20087;-71
2023/10/28 09:50:22;;;;;;;8.07;3.33;;;11.30;99.90;;;;;;5055542;28;20099;-71
2023/10/28 09:52:52;;;;;;;11.65;3.40;;;11.30;99.90;;;;;;5056815;28;20033;-71
2023/10/28 09:55:34;;;;;;;9.25;3.30;;;11.40;99.90;;;;;;5057586;28;20523;-71
2023/10/28 09:58:07;;;;;;;6.13;3.20;;;11.40;99.90;;;;;;5055578;28;20049;-71
2023/10/28 10:00:35;;;;;;;10.73;2.78;;;11.40;99.90;;;;;;5060768;28;20046;-74
2023/10/28 10:03:39;;;;;;;6.75;2.80;;;11.40;99.90;;;;;;5062244;28;20052;-71
2023/10/28 10:06:05;;;;;;;8.55;3.10;;;11.40;99.90;;;;;;5060533;28;20178;-71
2023/10/28 10:08:33;;;;;;;8.38;2.85;;;11.50;99.90;;;;;;5052598;28;20482;-71
2023/10/28 10:10:59;;;;;;;4.55;2.75;;;11.50;99.90;;;;;;5057104;28;20059;-71
2023/10/28 10:13:24;;;;;;;9.70;3.53;;;11.50;99.90;;;;;;5055056;28;20040;-71
2023/10/28 10:16:03;;;;;;;7.35;2.85;;;11.50;99.90;;;;;;5055202;28;20421;-71
2023/10/28 10:18:40;;;;;;;6.03;2.95;;;11.50;99.90;;;;;;5052882;28;20049;-71
2023/10/28 10:21:09;;;;;;;7.45;2.92;;;11.50;99.90;;;;;;5058801;28;20086;-71
2023/10/28 10:23:43;;;;;;;8.65;3.97;;;11.50;99.90;;;;;;5036374;28;20079;-71
2023/10/28 10:26:20;;;;;;;7.03;3.03;;;11.50;99.90;;;;;;5054357;28;20041;-71
2023/10/28 10:28:46;;;;;;;4.95;3.03;;;11.50;99.90;;;;;;5053985;28;20435;-71
2023/10/28 10:31:12;;;;;;;7.28;2.78;;;11.60;99.90;;;;;;5053986;28;20410;-71
2023/10/28 10:33:38;;;;;;;5.45;2.58;;;11.60;99.90;;;;;;5058404;28;20077;-71
2023/10/28 10:36:16;;;;;;;5.32;2.75;;;11.60;99.90;;;;;;5061794;28;20072;-71
2023/10/28 10:38:42;;;;;;;8.27;2.25;;;11.60;99.90;;;;;;5038824;28;20049;-71
2023/10/28 10:41:08;;;;;;;8.03;3.13;;;11.60;99.90;;;;;;5056877;28;20036;-71
2023/10/28 10:43:33;;;;;;;7.72;2.70;;;11.60;99.90;;;;;;5050560;28;20804;-71
2023/10/28 10:46:00;;;;;;;7.70;2.92;;;11.60;99.90;;;;;;5060633;28;20072;-71
2023/10/28 10:48:26;;;;;;;5.63;2.53;;;11.80;99.90;;;;;;5054001;28;20045;-71
2023/10/28 10:50:54;;;;;;;5.93;2.53;;;11.80;99.90;;;;;;5055734;28;20493;-71
2023/10/28 10:53:19;;;;;;;7.32;2.60;;;11.90;99.90;;;;;;5061604;28;20044;-71
2023/10/28 10:55:45;;;;;;;6.37;2.60;;;12.00;99.90;;;;;;5056602;28;20047;-71
2023/10/28 10:58:10;;;;;;;7.13;2.67;;;12.00;99.90;;;;;;5054368;28;20040;-71
2023/10/28 11:00:37;;;;;;;8.23;3.17;;;12.10;99.90;;;;;;5064198;28;20072;-71
2023/10/28 11:03:03;;;;;;;4.38;2.20;;;12.00;99.90;;;;;;5063765;28;20541;-71
2023/10/28 11:05:32;;;;;;;;;;;12.10;99.90;;;;;;5059302;28;20126;-71
2023/10/28 11:07:58;;;;;;;5.43;2.45;;;12.20;99.90;;;;;;5054273;28;19924;-71
2023/10/28 11:10:25;;;;;;;8.63;2.33;;;12.10;99.90;;;;;;5056681;28;20045;-71
2023/10/28 11:12:52;;;;;;;6.40;2.42;;;12.10;99.90;;;;;;5062502;28;20036;-71
2023/10/28 11:15:21;;;;;;;9.55;2.72;;;12.00;99.90;;;;;;5047603;28;20052;-71
2023/10/28 11:17:48;;;;;;;5.25;2.50;;;12.10;99.90;;;;;;5055380;28;20036;-71
2023/10/28 11:20:19;;;;;;;;;;;12.00;99.90;;;;;;5058165;28;20040;-71
2023/10/28 11:22:45;;;;;;;7.70;2.15;;;12.00;99.90;;;;;;5051490;28;19948;-71
2023/10/28 11:25:11;;;;;;;6.63;2.10;;;12.00;99.90;;;;;;5060541;28;20535;-71
2023/10/28 11:27:38;;;;;;;4.73;2.03;;;12.00;99.90;;;;;;5052103;28;20084;-71
2023/10/28 11:30:05;;;;;;;6.68;2.20;;;12.00;99.90;;;;;;5054269;28;20036;-71
2023/10/28 11:32:38;;;;;;;3.60;1.83;;;12.00;99.90;;;;;;5054037;28;20040;-71
2023/10/28 11:35:04;;;;;;;5.97;2.03;;;12.00;99.90;;;;;;5052843;28;20291;-71
2023/10/28 11:37:30;;;;;;;4.82;2.45;;;12.00;99.90;;;;;;5059366;28;20124;-71
2023/10/28 11:39:56;;;;;;;6.72;2.83;;;12.10;99.90;;;;;;5051458;28;20080;-72
2023/10/28 11:42:21;;;;;;;3.23;2.20;;;12.10;99.90;;;;;;5055432;28;20049;-71
2023/10/28 11:44:52;;;;;;;6.75;2.22;;;12.10;99.90;;;;;;5056226;28;20044;-72
2023/10/28 11:47:19;;;;;;;8.07;2.30;;;12.10;99.90;;;;;;5053387;28;20077;-72
2023/10/28 11:49:46;;;;;;;6.95;2.25;;;12.10;99.90;;;;;;5059597;28;20103;-71
2023/10/28 11:52:12;;;;;;;6.90;2.17;;;12.10;99.90;;;;;;5056101;28;20076;-71
2023/10/28 11:54:39;;;;;;;9.95;2.42;;;12.20;99.90;;;;;;5058108;28;20053;-71
2023/10/28 11:57:05;;;;;;;8.95;2.67;;;12.20;99.90;;;;;;5054094;28;20047;-71
2023/10/28 11:59:30;;;;;;;6.18;2.47;;;12.20;99.90;;;;;;5056964;28;20040;-71
2023/10/28 12:01:56;;;;;;;4.63;2.10;;;12.20;99.90;;;;;;5056666;28;20044;-71
2023/10/28 12:04:23;;;;;;;7.88;2.22;;;12.20;99.90;;;;;;5049361;28;20124;-71
2023/10/28 12:06:49;;;;;;;4.35;1.80;;;12.20;99.90;;;;;;5049028;28;20084;-71
2023/10/28 12:09:14;;;;;;;6.03;2.13;;;12.20;99.90;;;;;;5049155;28;20485;-71
2023/10/28 12:11:41;;;;;;;8.13;2.13;;;12.20;99.90;;;;;;5056459;28;20071;-72
2023/10/28 12:14:10;;;;;;;;;;;12.20;99.90;;;;;;5050176;28;20369;-71
2023/10/28 12:16:39;;;;;;;4.97;2.00;;;12.20;99.90;;;;;;5052378;28;19950;-72
2023/10/28 12:19:06;;;;;;;6.63;2.38;;;12.20;99.90;;;;;;5050085;28;20151;-71
2023/10/28 12:21:35;;;;;;;5.68;2.05;;;12.20;99.90;;;;;;5054996;28;20041;-71
2023/10/28 12:24:05;;;;;;;3.92;2.30;;;12.20;99.90;;;;;;5050863;28;20037;-71
2023/10/28 12:26:31;;;;;;;9.45;2.20;;;12.30;99.90;;;;;;5062712;28;20044;-71
2023/10/28 12:28:56;;;;;;;7.22;2.75;;;12.30;99.90;;;;;;5055010;28;20076;-71
2023/10/28 12:31:22;;;;;;;6.43;2.60;;;12.40;99.90;;;;;;5059678;28;20087;-71
2023/10/28 12:33:49;;;;;;;8.82;2.20;;;12.40;99.90;;;;;;5058978;28;20496;-71
2023/10/28 12:36:16;;;;;;;7.47;2.92;;;12.40;99.90;;;;;;5056465;28;20052;-71
2023/10/28 12:38:46;;;;;;;6.55;2.60;;;12.40;99.90;;;;;;5058619;28;20048;-71
2023/10/28 12:41:12;;;;;;;5.35;2.28;;;12.50;99.90;;;;;;5059452;28;20520;-72
2023/10/28 12:43:39;;;;;;;;;;;12.50;99.90;;;;;;5049807;28;20118;-71